sensor_id;sensor_type;location;lat;lon;timestamp;P1;durP1;ratioP1;P2;durP2;ratioP2
73331;SDS011;61560;33.718;73.040;2022-12-26T00:01:22;25.42;;;10.73;;
73331;SDS011;61560;33.718;73.040;2022-12-26T00:03:51;25.98;;;11.50;;
73331;SDS011;61560;33.718;73.040;2022-12-26T00:06:20;25.13;;;10.63;;
73331;SDS011;61560;33.718;73.040;2022-12-26T00:08:49;23.88;;;11.75;;
73331;SDS011;61560;33.718;73.040;2022-12-26T00:11:20;23.90;;;10.00;;
73331;SDS011;61560;33.718;73.040;2022-12-26T00:13:58;26.92;;;11.18;;
73331;SDS011;61560;33.718;73.040;2022-12-26T00:18:58;21.10;;;9.60;;
73331;SDS011;61560;33.718;73.040;2022-12-26T00:21:25;25.95;;;11.15;;
73331;SDS011;61560;33.718;73.040;2022-12-26T00:23:54;25.85;;;10.68;;
73331;SDS011;61560;33.718;73.040;2022-12-26T00:26:24;22.52;;;9.40;;
73331;SDS011;61560;33.718;73.040;2022-12-26T00:28:53;23.45;;;9.80;;
73331;SDS011;61560;33.718;73.040;2022-12-26T00:31:23;24.55;;;10.07;;
73331;SDS011;61560;33.718;73.040;2022-12-26T00:33:53;26.10;;;8.98;;
73331;SDS011;61560;33.718;73.040;2022-12-26T00:36:21;25.55;;;9.65;;
73331;SDS011;61560;33.718;73.040;2022-12-26T00:38:50;19.05;;;8.55;;
73331;SDS011;61560;33.718;73.040;2022-12-26T00:41:18;23.23;;;8.60;;
73331;SDS011;61560;33.718;73.040;2022-12-26T00:43:46;26.80;;;9.43;;
73331;SDS011;61560;33.718;73.040;2022-12-26T00:46:13;20.45;;;8.38;;
73331;SDS011;61560;33.718;73.040;2022-12-26T00:48:45;15.65;;;7.93;;
73331;SDS011;61560;33.718;73.040;2022-12-26T00:51:16;15.18;;;8.48;;
73331;SDS011;61560;33.718;73.040;2022-12-26T00:53:44;22.65;;;9.15;;
73331;SDS011;61560;33.718;73.040;2022-12-26T00:56:13;24.35;;;8.45;;
73331;SDS011;61560;33.718;73.040;2022-12-26T00:58:40;25.98;;;9.82;;
73331;SDS011;61560;33.718;73.040;2022-12-26T01:03:41;35.72;;;11.00;;
73331;SDS011;61560;33.718;73.040;2022-12-26T01:06:10;21.17;;;9.13;;
73331;SDS011;61560;33.718;73.040;2022-12-26T01:08:38;29.58;;;10.52;;
73331;SDS011;61560;33.718;73.040;2022-12-26T01:11:07;24.48;;;9.50;;
73331;SDS011;61560;33.718;73.040;2022-12-26T01:13:36;19.95;;;10.57;;
73331;SDS011;61560;33.718;73.040;2022-12-26T01:16:05;23.35;;;8.95;;
73331;SDS011;61560;33.718;73.040;2022-12-26T01:18:33;16.08;;;8.27;;
73331;SDS011;61560;33.718;73.040;2022-12-26T01:21:01;27.05;;;8.32;;
73331;SDS011;61560;33.718;73.040;2022-12-26T01:26:00;23.83;;;9.07;;
73331;SDS011;61560;33.718;73.040;2022-12-26T01:28:29;24.08;;;9.23;;
73331;SDS011;61560;33.718;73.040;2022-12-26T01:30:59;16.50;;;7.75;;
73331;SDS011;61560;33.718;73.040;2022-12-26T01:33:28;19.30;;;10.40;;
73331;SDS011;61560;33.718;73.040;2022-12-26T01:35:55;22.63;;;8.63;;
73331;SDS011;61560;33.718;73.040;2022-12-26T01:38:23;24.45;;;9.43;;
73331;SDS011;61560;33.718;73.040;2022-12-26T01:40:50;27.38;;;11.23;;
73331;SDS011;61560;33.718;73.040;2022-12-26T01:43:56;22.13;;;9.35;;
73331;SDS011;61560;33.718;73.040;2022-12-26T01:48:53;21.58;;;9.07;;
73331;SDS011;61560;33.718;73.040;2022-12-26T01:51:22;31.67;;;10.23;;
73331;SDS011;61560;33.718;73.040;2022-12-26T01:53:54;22.23;;;8.48;;
73331;SDS011;61560;33.718;73.040;2022-12-26T01:56:28;23.38;;;10.05;;
73331;SDS011;61560;33.718;73.040;2022-12-26T01:59:05;30.58;;;11.02;;
73331;SDS011;61560;33.718;73.040;2022-12-26T02:01:37;21.48;;;10.40;;
73331;SDS011;61560;33.718;73.040;2022-12-26T02:04:08;26.25;;;11.10;;
73331;SDS011;61560;33.718;73.040;2022-12-26T02:06:56;25.77;;;8.90;;
73331;SDS011;61560;33.718;73.040;2022-12-26T02:09:24;29.65;;;11.68;;
73331;SDS011;61560;33.718;73.040;2022-12-26T02:12:36;26.23;;;10.77;;
73331;SDS011;61560;33.718;73.040;2022-12-26T02:14:42;48.58;;;16.92;;
73331;SDS011;61560;33.718;73.040;2022-12-26T02:17:09;54.88;;;18.73;;
73331;SDS011;61560;33.718;73.040;2022-12-26T02:36:25;57.03;;;22.38;;
73331;SDS011;61560;33.718;73.040;2022-12-26T02:39:22;51.75;;;18.08;;
73331;SDS011;61560;33.718;73.040;2022-12-26T02:44:47;42.22;;;16.23;;
73331;SDS011;61560;33.718;73.040;2022-12-26T02:54:08;59.70;;;18.65;;
73331;SDS011;61560;33.718;73.040;2022-12-26T02:57:03;54.55;;;20.48;;
73331;SDS011;61560;33.718;73.040;2022-12-26T02:59:59;41.72;;;17.67;;
73331;SDS011;61560;33.718;73.040;2022-12-26T03:02:54;38.15;;;11.82;;
73331;SDS011;61560;33.718;73.040;2022-12-26T03:11:47;22.00;;;11.93;;
73331;SDS011;61560;33.718;73.040;2022-12-26T03:14:43;24.60;;;10.73;;
73331;SDS011;61560;33.718;73.040;2022-12-26T03:17:22;23.73;;;9.45;;
73331;SDS011;61560;33.718;73.040;2022-12-26T03:20:04;24.75;;;10.85;;
73331;SDS011;61560;33.718;73.040;2022-12-26T03:22:41;30.42;;;10.63;;
73331;SDS011;61560;33.718;73.040;2022-12-26T03:25:22;38.72;;;13.82;;
73331;SDS011;61560;33.718;73.040;2022-12-26T03:28:28;28.42;;;13.27;;
73331;SDS011;61560;33.718;73.040;2022-12-26T03:30:56;34.13;;;14.00;;
73331;SDS011;61560;33.718;73.040;2022-12-26T03:33:28;39.97;;;13.43;;
73331;SDS011;61560;33.718;73.040;2022-12-26T03:43:05;34.00;;;12.85;;
73331;SDS011;61560;33.718;73.040;2022-12-26T03:51:41;33.00;;;12.70;;
73331;SDS011;61560;33.718;73.040;2022-12-26T03:57:50;33.67;;;12.23;;
73331;SDS011;61560;33.718;73.040;2022-12-26T04:00:57;32.55;;;11.90;;
73331;SDS011;61560;33.718;73.040;2022-12-26T04:03:45;31.70;;;13.70;;
73331;SDS011;61560;33.718;73.040;2022-12-26T04:06:47;34.42;;;13.02;;
73331;SDS011;61560;33.718;73.040;2022-12-26T04:09:42;37.20;;;14.70;;
73331;SDS011;61560;33.718;73.040;2022-12-26T04:12:52;39.90;;;14.00;;
73331;SDS011;61560;33.718;73.040;2022-12-26T04:18:57;46.35;;;15.13;;
73331;SDS011;61560;33.718;73.040;2022-12-26T04:22:06;36.55;;;14.60;;
73331;SDS011;61560;33.718;73.040;2022-12-26T04:27:57;36.58;;;13.73;;
73331;SDS011;61560;33.718;73.040;2022-12-26T04:30:52;33.53;;;14.48;;
73331;SDS011;61560;33.718;73.040;2022-12-26T04:33:47;41.72;;;17.80;;
73331;SDS011;61560;33.718;73.040;2022-12-26T04:36:45;40.22;;;15.68;;
73331;SDS011;61560;33.718;73.040;2022-12-26T04:39:42;54.35;;;18.20;;
73331;SDS011;61560;33.718;73.040;2022-12-26T04:42:32;45.95;;;17.27;;
73331;SDS011;61560;33.718;73.040;2022-12-26T04:45:20;47.08;;;17.17;;
73331;SDS011;61560;33.718;73.040;2022-12-26T04:47:48;40.13;;;17.30;;
73331;SDS011;61560;33.718;73.040;2022-12-26T04:50:47;53.42;;;18.67;;
73331;SDS011;61560;33.718;73.040;2022-12-26T04:53:20;56.45;;;19.67;;
73331;SDS011;61560;33.718;73.040;2022-12-26T04:55:47;48.55;;;19.70;;
73331;SDS011;61560;33.718;73.040;2022-12-26T04:58:14;63.95;;;22.45;;
73331;SDS011;61560;33.718;73.040;2022-12-26T05:00:44;58.97;;;21.85;;
73331;SDS011;61560;33.718;73.040;2022-12-26T05:03:12;59.38;;;22.73;;
73331;SDS011;61560;33.718;73.040;2022-12-26T05:05:58;57.55;;;23.65;;
73331;SDS011;61560;33.718;73.040;2022-12-26T05:08:44;67.03;;;22.58;;
73331;SDS011;61560;33.718;73.040;2022-12-26T05:11:31;62.30;;;24.35;;
73331;SDS011;61560;33.718;73.040;2022-12-26T05:14:00;76.00;;;27.00;;
73331;SDS011;61560;33.718;73.040;2022-12-26T05:16:27;85.72;;;28.90;;
73331;SDS011;61560;33.718;73.040;2022-12-26T05:19:16;78.15;;;30.83;;
73331;SDS011;61560;33.718;73.040;2022-12-26T05:22:02;92.38;;;33.50;;
73331;SDS011;61560;33.718;73.040;2022-12-26T05:24:49;92.78;;;34.58;;
73331;SDS011;61560;33.718;73.040;2022-12-26T05:27:36;104.70;;;37.35;;
73331;SDS011;61560;33.718;73.040;2022-12-26T05:30:26;95.80;;;37.47;;
73331;SDS011;61560;33.718;73.040;2022-12-26T05:32:54;103.82;;;38.10;;
73331;SDS011;61560;33.718;73.040;2022-12-26T05:35:41;98.93;;;35.83;;
73331;SDS011;61560;33.718;73.040;2022-12-26T05:38:08;89.82;;;32.33;;
73331;SDS011;61560;33.718;73.040;2022-12-26T05:40:38;90.85;;;35.72;;
73331;SDS011;61560;33.718;73.040;2022-12-26T05:43:05;94.60;;;35.45;;
73331;SDS011;61560;33.718;73.040;2022-12-26T05:45:33;110.80;;;41.42;;
73331;SDS011;61560;33.718;73.040;2022-12-26T05:48:00;105.47;;;38.15;;
73331;SDS011;61560;33.718;73.040;2022-12-26T05:50:29;100.95;;;41.70;;
73331;SDS011;61560;33.718;73.040;2022-12-26T05:52:56;99.82;;;40.83;;
73331;SDS011;61560;33.718;73.040;2022-12-26T05:55:24;111.57;;;43.47;;
73331;SDS011;61560;33.718;73.040;2022-12-26T05:57:51;112.53;;;45.92;;
73331;SDS011;61560;33.718;73.040;2022-12-26T06:00:19;103.28;;;42.65;;
73331;SDS011;61560;33.718;73.040;2022-12-26T06:02:46;113.10;;;43.88;;
73331;SDS011;61560;33.718;73.040;2022-12-26T06:05:13;105.40;;;44.42;;
73331;SDS011;61560;33.718;73.040;2022-12-26T06:07:40;118.05;;;44.92;;
73331;SDS011;61560;33.718;73.040;2022-12-26T06:10:07;115.90;;;45.33;;
73331;SDS011;61560;33.718;73.040;2022-12-26T06:12:37;126.38;;;46.20;;
73331;SDS011;61560;33.718;73.040;2022-12-26T06:15:05;118.50;;;44.72;;
73331;SDS011;61560;33.718;73.040;2022-12-26T06:17:33;116.57;;;45.70;;
73331;SDS011;61560;33.718;73.040;2022-12-26T06:20:00;115.88;;;45.80;;
73331;SDS011;61560;33.718;73.040;2022-12-26T06:22:30;115.03;;;47.80;;
73331;SDS011;61560;33.718;73.040;2022-12-26T06:24:58;120.93;;;47.13;;
73331;SDS011;61560;33.718;73.040;2022-12-26T06:27:25;127.95;;;51.60;;
73331;SDS011;61560;33.718;73.040;2022-12-26T06:29:52;116.88;;;47.90;;
73331;SDS011;61560;33.718;73.040;2022-12-26T06:32:19;118.80;;;46.75;;
73331;SDS011;61560;33.718;73.040;2022-12-26T06:34:46;118.28;;;44.72;;
73331;SDS011;61560;33.718;73.040;2022-12-26T06:37:13;110.93;;;45.17;;
73331;SDS011;61560;33.718;73.040;2022-12-26T06:39:41;120.65;;;43.70;;
73331;SDS011;61560;33.718;73.040;2022-12-26T06:42:11;107.63;;;44.10;;
73331;SDS011;61560;33.718;73.040;2022-12-26T06:44:38;103.00;;;39.92;;
73331;SDS011;61560;33.718;73.040;2022-12-26T06:47:07;89.20;;;35.63;;
73331;SDS011;61560;33.718;73.040;2022-12-26T06:49:34;104.10;;;35.63;;
73331;SDS011;61560;33.718;73.040;2022-12-26T06:52:02;86.53;;;33.17;;
73331;SDS011;61560;33.718;73.040;2022-12-26T06:54:29;93.00;;;35.28;;
73331;SDS011;61560;33.718;73.040;2022-12-26T06:56:56;93.63;;;34.40;;
73331;SDS011;61560;33.718;73.040;2022-12-26T06:59:23;98.35;;;38.10;;
73331;SDS011;61560;33.718;73.040;2022-12-26T07:01:51;90.03;;;36.65;;
73331;SDS011;61560;33.718;73.040;2022-12-26T07:04:19;89.22;;;37.92;;
73331;SDS011;61560;33.718;73.040;2022-12-26T07:06:46;90.53;;;36.10;;
73331;SDS011;61560;33.718;73.040;2022-12-26T07:09:15;107.00;;;39.15;;
73331;SDS011;61560;33.718;73.040;2022-12-26T07:11:44;96.97;;;39.42;;
73331;SDS011;61560;33.718;73.040;2022-12-26T07:14:13;99.53;;;38.53;;
73331;SDS011;61560;33.718;73.040;2022-12-26T07:16:41;92.75;;;39.05;;
73331;SDS011;61560;33.718;73.040;2022-12-26T07:19:10;93.47;;;39.10;;
73331;SDS011;61560;33.718;73.040;2022-12-26T07:21:38;95.80;;;38.30;;
73331;SDS011;61560;33.718;73.040;2022-12-26T07:24:05;91.50;;;36.90;;
73331;SDS011;61560;33.718;73.040;2022-12-26T07:26:38;93.90;;;38.35;;
73331;SDS011;61560;33.718;73.040;2022-12-26T07:29:05;97.38;;;38.85;;
73331;SDS011;61560;33.718;73.040;2022-12-26T07:31:32;94.68;;;36.53;;
73331;SDS011;61560;33.718;73.040;2022-12-26T07:33:59;87.38;;;37.97;;
73331;SDS011;61560;33.718;73.040;2022-12-26T07:36:26;88.68;;;37.85;;
73331;SDS011;61560;33.718;73.040;2022-12-26T07:38:53;100.40;;;37.25;;
73331;SDS011;61560;33.718;73.040;2022-12-26T07:41:21;87.28;;;36.50;;
73331;SDS011;61560;33.718;73.040;2022-12-26T07:44:07;85.47;;;35.25;;
73331;SDS011;61560;33.718;73.040;2022-12-26T07:46:35;84.85;;;34.33;;
73331;SDS011;61560;33.718;73.040;2022-12-26T07:49:03;91.95;;;35.28;;
73331;SDS011;61560;33.718;73.040;2022-12-26T07:51:30;79.38;;;31.63;;
73331;SDS011;61560;33.718;73.040;2022-12-26T07:53:57;72.78;;;31.25;;
73331;SDS011;61560;33.718;73.040;2022-12-26T07:56:24;77.70;;;31.88;;
73331;SDS011;61560;33.718;73.040;2022-12-26T07:58:51;75.80;;;29.90;;
73331;SDS011;61560;33.718;73.040;2022-12-26T08:01:18;69.15;;;29.73;;
73331;SDS011;61560;33.718;73.040;2022-12-26T09:02:26;66.55;;;24.35;;
73331;SDS011;61560;33.718;73.040;2022-12-26T09:04:54;57.00;;;22.42;;
73331;SDS011;61560;33.718;73.040;2022-12-26T09:07:21;63.67;;;25.00;;
73331;SDS011;61560;33.718;73.040;2022-12-26T09:09:50;62.78;;;24.58;;
73331;SDS011;61560;33.718;73.040;2022-12-26T09:12:17;66.45;;;24.10;;
73331;SDS011;61560;33.718;73.040;2022-12-26T09:14:44;56.40;;;22.77;;
73331;SDS011;61560;33.718;73.040;2022-12-26T09:17:12;66.95;;;23.50;;
73331;SDS011;61560;33.718;73.040;2022-12-26T09:19:40;63.38;;;24.55;;
73331;SDS011;61560;33.718;73.040;2022-12-26T09:22:06;55.65;;;23.25;;
73331;SDS011;61560;33.718;73.040;2022-12-26T09:24:52;62.33;;;24.77;;
73331;SDS011;61560;33.718;73.040;2022-12-26T09:27:20;54.72;;;24.35;;
73331;SDS011;61560;33.718;73.040;2022-12-26T09:29:48;63.60;;;24.60;;
73331;SDS011;61560;33.718;73.040;2022-12-26T09:32:15;63.05;;;24.23;;
73331;SDS011;61560;33.718;73.040;2022-12-26T09:34:47;65.80;;;26.60;;
73331;SDS011;61560;33.718;73.040;2022-12-26T09:37:14;66.95;;;25.25;;
73331;SDS011;61560;33.718;73.040;2022-12-26T09:39:41;59.45;;;24.58;;
73331;SDS011;61560;33.718;73.040;2022-12-26T09:48:02;59.22;;;23.67;;
73331;SDS011;61560;33.718;73.040;2022-12-26T09:50:38;59.40;;;22.25;;
73331;SDS011;61560;33.718;73.040;2022-12-26T09:53:18;58.72;;;22.67;;
73331;SDS011;61560;33.718;73.040;2022-12-26T09:56:15;59.67;;;24.67;;
73331;SDS011;61560;33.718;73.040;2022-12-26T09:58:53;78.13;;;26.80;;
73331;SDS011;61560;33.718;73.040;2022-12-26T10:01:33;63.83;;;24.90;;
73331;SDS011;61560;33.718;73.040;2022-12-26T10:04:06;68.13;;;25.88;;
73331;SDS011;61560;33.718;73.040;2022-12-26T10:06:44;56.42;;;23.58;;
73331;SDS011;61560;33.718;73.040;2022-12-26T10:17:34;65.88;;;24.38;;
73331;SDS011;61560;33.718;73.040;2022-12-26T10:23:32;65.07;;;24.27;;
73331;SDS011;61560;33.718;73.040;2022-12-26T10:26:11;57.00;;;22.70;;
73331;SDS011;61560;33.718;73.040;2022-12-26T10:31:28;63.92;;;24.63;;
73331;SDS011;61560;33.718;73.040;2022-12-26T10:34:17;64.35;;;22.77;;
73331;SDS011;61560;33.718;73.040;2022-12-26T10:36:47;47.47;;;20.70;;
73331;SDS011;61560;33.718;73.040;2022-12-26T10:39:25;55.30;;;22.90;;
73331;SDS011;61560;33.718;73.040;2022-12-26T10:42:26;56.03;;;21.42;;
73331;SDS011;61560;33.718;73.040;2022-12-26T10:44:54;65.28;;;23.42;;
73331;SDS011;61560;33.718;73.040;2022-12-26T10:49:57;64.88;;;24.35;;
73331;SDS011;61560;33.718;73.040;2022-12-26T10:52:29;70.00;;;26.10;;
73331;SDS011;61560;33.718;73.040;2022-12-26T10:55:04;66.68;;;25.73;;
73331;SDS011;61560;33.718;73.040;2022-12-26T10:57:34;61.50;;;24.42;;
73331;SDS011;61560;33.718;73.040;2022-12-26T11:00:12;71.53;;;24.38;;
73331;SDS011;61560;33.718;73.040;2022-12-26T11:05:29;61.47;;;23.75;;
73331;SDS011;61560;33.718;73.040;2022-12-26T11:08:19;69.82;;;25.63;;
73331;SDS011;61560;33.718;73.040;2022-12-26T11:11:09;69.03;;;23.60;;
73331;SDS011;61560;33.718;73.040;2022-12-26T11:14:00;61.22;;;25.67;;
73331;SDS011;61560;33.718;73.040;2022-12-26T11:16:32;172.88;;;59.35;;
73331;SDS011;61560;33.718;73.040;2022-12-26T11:19:03;212.70;;;73.35;;
73331;SDS011;61560;33.718;73.040;2022-12-26T11:21:30;201.23;;;69.30;;
73331;SDS011;61560;33.718;73.040;2022-12-26T11:26:35;172.48;;;60.28;;
73331;SDS011;61560;33.718;73.040;2022-12-26T11:31:37;148.32;;;55.28;;
73331;SDS011;61560;33.718;73.040;2022-12-26T11:34:16;138.40;;;50.60;;
73331;SDS011;61560;33.718;73.040;2022-12-26T11:36:50;128.05;;;43.40;;
73331;SDS011;61560;33.718;73.040;2022-12-26T11:39:23;123.00;;;41.60;;
73331;SDS011;61560;33.718;73.040;2022-12-26T11:41:54;116.10;;;39.75;;
73331;SDS011;61560;33.718;73.040;2022-12-26T11:49:53;85.78;;;29.83;;
73331;SDS011;61560;33.718;73.040;2022-12-26T12:03:01;51.30;;;19.98;;
73331;SDS011;61560;33.718;73.040;2022-12-26T12:05:50;60.22;;;21.13;;
73331;SDS011;61560;33.718;73.040;2022-12-26T12:30:52;55.90;;;19.63;;
73331;SDS011;61560;33.718;73.040;2022-12-26T12:36:09;49.28;;;18.23;;
73331;SDS011;61560;33.718;73.040;2022-12-26T12:41:50;50.22;;;19.45;;
73331;SDS011;61560;33.718;73.040;2022-12-26T12:47:28;57.25;;;19.38;;
73331;SDS011;61560;33.718;73.040;2022-12-26T12:51:06;47.20;;;17.38;;
73331;SDS011;61560;33.718;73.040;2022-12-26T13:02:03;48.38;;;19.38;;
73331;SDS011;61560;33.718;73.040;2022-12-26T13:04:41;51.60;;;20.13;;
73331;SDS011;61560;33.718;73.040;2022-12-26T14:16:11;43.55;;;17.05;;
73331;SDS011;61560;33.718;73.040;2022-12-26T14:21:59;45.28;;;19.70;;
73331;SDS011;61560;33.718;73.040;2022-12-26T14:29:45;46.38;;;19.58;;
73331;SDS011;61560;33.718;73.040;2022-12-26T14:38:21;45.20;;;17.90;;
73331;SDS011;61560;33.718;73.040;2022-12-26T14:41:01;53.47;;;19.80;;
73331;SDS011;61560;33.718;73.040;2022-12-26T14:43:38;52.90;;;20.60;;
73331;SDS011;61560;33.718;73.040;2022-12-26T14:47:08;50.92;;;19.45;;
73331;SDS011;61560;33.718;73.040;2022-12-26T14:49:17;51.40;;;20.90;;
73331;SDS011;61560;33.718;73.040;2022-12-26T14:52:42;51.05;;;18.83;;
73331;SDS011;61560;33.718;73.040;2022-12-26T14:54:51;49.92;;;19.38;;
73331;SDS011;61560;33.718;73.040;2022-12-26T15:02:51;65.85;;;22.85;;
73331;SDS011;61560;33.718;73.040;2022-12-26T15:05:49;54.13;;;22.10;;
73331;SDS011;61560;33.718;73.040;2022-12-26T15:16:56;65.35;;;25.35;;
73331;SDS011;61560;33.718;73.040;2022-12-26T15:22:27;58.88;;;23.13;;
73331;SDS011;61560;33.718;73.040;2022-12-26T15:25:23;64.25;;;23.95;;
73331;SDS011;61560;33.718;73.040;2022-12-26T15:39:48;58.13;;;24.05;;
73331;SDS011;61560;33.718;73.040;2022-12-26T15:50:18;67.43;;;26.83;;
73331;SDS011;61560;33.718;73.040;2022-12-26T15:52:52;64.78;;;26.70;;
73331;SDS011;61560;33.718;73.040;2022-12-26T16:00:47;52.53;;;22.27;;
73331;SDS011;61560;33.718;73.040;2022-12-26T16:03:29;72.15;;;29.02;;
73331;SDS011;61560;33.718;73.040;2022-12-26T16:06:22;69.55;;;26.02;;
73331;SDS011;61560;33.718;73.040;2022-12-26T16:17:27;74.32;;;28.92;;
73331;SDS011;61560;33.718;73.040;2022-12-26T16:19:55;75.95;;;27.55;;
73331;SDS011;61560;33.718;73.040;2022-12-26T16:27:46;58.88;;;21.15;;
73331;SDS011;61560;33.718;73.040;2022-12-26T16:30:25;56.15;;;21.17;;
73331;SDS011;61560;33.718;73.040;2022-12-26T16:32:57;48.78;;;19.98;;
73331;SDS011;61560;33.718;73.040;2022-12-26T16:35:30;49.38;;;19.98;;
73331;SDS011;61560;33.718;73.040;2022-12-26T16:38:00;50.70;;;20.38;;
73331;SDS011;61560;33.718;73.040;2022-12-26T16:40:33;46.60;;;18.38;;
73331;SDS011;61560;33.718;73.040;2022-12-26T16:45:54;39.95;;;17.88;;
73331;SDS011;61560;33.718;73.040;2022-12-26T16:48:25;52.75;;;18.50;;
73331;SDS011;61560;33.718;73.040;2022-12-26T16:50:58;56.35;;;20.67;;
73331;SDS011;61560;33.718;73.040;2022-12-26T16:56:21;42.80;;;17.50;;
73331;SDS011;61560;33.718;73.040;2022-12-26T16:59:08;55.67;;;17.95;;
73331;SDS011;61560;33.718;73.040;2022-12-26T17:01:53;45.38;;;17.73;;
73331;SDS011;61560;33.718;73.040;2022-12-26T17:04:37;46.63;;;16.77;;
73331;SDS011;61560;33.718;73.040;2022-12-26T17:07:17;39.97;;;17.10;;
73331;SDS011;61560;33.718;73.040;2022-12-26T17:09:59;38.63;;;16.13;;
73331;SDS011;61560;33.718;73.040;2022-12-26T17:12:36;46.67;;;18.92;;
73331;SDS011;61560;33.718;73.040;2022-12-26T17:15:21;49.65;;;17.35;;
73331;SDS011;61560;33.718;73.040;2022-12-26T17:21:16;44.38;;;17.60;;
73331;SDS011;61560;33.718;73.040;2022-12-26T17:24:22;44.00;;;16.67;;
73331;SDS011;61560;33.718;73.040;2022-12-26T17:27:09;43.85;;;16.17;;
73331;SDS011;61560;33.718;73.040;2022-12-26T17:29:46;38.42;;;15.88;;
73331;SDS011;61560;33.718;73.040;2022-12-26T17:32:39;45.92;;;17.48;;
73331;SDS011;61560;33.718;73.040;2022-12-26T17:35:25;64.50;;;26.90;;
73331;SDS011;61560;33.718;73.040;2022-12-26T17:37:56;56.40;;;21.23;;
73331;SDS011;61560;33.718;73.040;2022-12-26T17:40:39;50.58;;;20.75;;
73331;SDS011;61560;33.718;73.040;2022-12-26T17:45:58;63.75;;;23.45;;
73331;SDS011;61560;33.718;73.040;2022-12-26T17:48:39;55.80;;;22.27;;
73331;SDS011;61560;33.718;73.040;2022-12-26T17:51:10;66.60;;;21.15;;
73331;SDS011;61560;33.718;73.040;2022-12-26T17:56:17;53.60;;;20.48;;
73331;SDS011;61560;33.718;73.040;2022-12-26T17:58:49;48.30;;;21.42;;
73331;SDS011;61560;33.718;73.040;2022-12-26T18:01:16;57.90;;;22.17;;
73331;SDS011;61560;33.718;73.040;2022-12-26T18:03:44;53.58;;;20.70;;
73331;SDS011;61560;33.718;73.040;2022-12-26T18:06:14;57.47;;;21.35;;
73331;SDS011;61560;33.718;73.040;2022-12-26T18:08:44;47.90;;;19.80;;
73331;SDS011;61560;33.718;73.040;2022-12-26T18:11:12;58.35;;;22.20;;
73331;SDS011;61560;33.718;73.040;2022-12-26T18:13:40;52.58;;;20.17;;
73331;SDS011;61560;33.718;73.040;2022-12-26T18:16:15;63.25;;;21.83;;
73331;SDS011;61560;33.718;73.040;2022-12-26T18:18:45;50.03;;;19.50;;
73331;SDS011;61560;33.718;73.040;2022-12-26T18:21:14;53.47;;;20.83;;
73331;SDS011;61560;33.718;73.040;2022-12-26T18:23:42;64.60;;;24.55;;
73331;SDS011;61560;33.718;73.040;2022-12-26T18:26:17;60.45;;;25.45;;
73331;SDS011;61560;33.718;73.040;2022-12-26T18:28:50;65.20;;;24.30;;
73331;SDS011;61560;33.718;73.040;2022-12-26T18:31:17;68.07;;;23.73;;
73331;SDS011;61560;33.718;73.040;2022-12-26T18:33:44;64.07;;;25.17;;
73331;SDS011;61560;33.718;73.040;2022-12-26T18:36:12;64.30;;;22.70;;
73331;SDS011;61560;33.718;73.040;2022-12-26T18:38:41;61.97;;;22.67;;
73331;SDS011;61560;33.718;73.040;2022-12-26T18:41:18;55.35;;;22.27;;
73331;SDS011;61560;33.718;73.040;2022-12-26T18:43:46;50.75;;;18.30;;
73331;SDS011;61560;33.718;73.040;2022-12-26T18:46:17;50.90;;;20.42;;
73331;SDS011;61560;33.718;73.040;2022-12-26T18:48:46;64.50;;;21.65;;
73331;SDS011;61560;33.718;73.040;2022-12-26T18:51:14;49.60;;;21.73;;
73331;SDS011;61560;33.718;73.040;2022-12-26T18:53:41;54.97;;;19.98;;
73331;SDS011;61560;33.718;73.040;2022-12-26T18:56:12;53.42;;;19.80;;
73331;SDS011;61560;33.718;73.040;2022-12-26T18:58:41;57.08;;;20.35;;
73331;SDS011;61560;33.718;73.040;2022-12-26T19:01:09;58.50;;;22.40;;
73331;SDS011;61560;33.718;73.040;2022-12-26T19:03:40;61.22;;;20.92;;
73331;SDS011;61560;33.718;73.040;2022-12-26T19:06:11;51.25;;;20.30;;
73331;SDS011;61560;33.718;73.040;2022-12-26T19:08:41;48.50;;;20.27;;
73331;SDS011;61560;33.718;73.040;2022-12-26T19:11:10;50.38;;;21.48;;
73331;SDS011;61560;33.718;73.040;2022-12-26T19:13:38;62.53;;;23.25;;
73331;SDS011;61560;33.718;73.040;2022-12-26T19:16:05;41.47;;;20.42;;
73331;SDS011;61560;33.718;73.040;2022-12-26T19:18:33;51.60;;;22.25;;
73331;SDS011;61560;33.718;73.040;2022-12-26T19:21:00;51.28;;;20.65;;
73331;SDS011;61560;33.718;73.040;2022-12-26T19:23:27;53.67;;;19.67;;
73331;SDS011;61560;33.718;73.040;2022-12-26T19:25:54;57.55;;;22.00;;
73331;SDS011;61560;33.718;73.040;2022-12-26T19:28:21;54.15;;;20.88;;
73331;SDS011;61560;33.718;73.040;2022-12-26T19:30:48;53.70;;;20.23;;
73331;SDS011;61560;33.718;73.040;2022-12-26T19:33:15;60.50;;;22.83;;
73331;SDS011;61560;33.718;73.040;2022-12-26T19:35:42;56.45;;;21.67;;
73331;SDS011;61560;33.718;73.040;2022-12-26T19:38:09;49.42;;;20.75;;
73331;SDS011;61560;33.718;73.040;2022-12-26T19:40:38;42.05;;;17.13;;
73331;SDS011;61560;33.718;73.040;2022-12-26T19:43:05;46.67;;;18.92;;
73331;SDS011;61560;33.718;73.040;2022-12-26T19:45:32;51.42;;;21.65;;
73331;SDS011;61560;33.718;73.040;2022-12-26T19:47:59;51.33;;;20.25;;
73331;SDS011;61560;33.718;73.040;2022-12-26T19:50:26;44.70;;;18.20;;
73331;SDS011;61560;33.718;73.040;2022-12-26T19:52:53;47.95;;;19.98;;
73331;SDS011;61560;33.718;73.040;2022-12-26T19:55:20;52.13;;;19.55;;
73331;SDS011;61560;33.718;73.040;2022-12-26T19:57:48;53.80;;;18.73;;
73331;SDS011;61560;33.718;73.040;2022-12-26T20:00:15;48.40;;;19.20;;
73331;SDS011;61560;33.718;73.040;2022-12-26T20:02:42;49.05;;;19.65;;
73331;SDS011;61560;33.718;73.040;2022-12-26T20:05:09;44.35;;;19.73;;
73331;SDS011;61560;33.718;73.040;2022-12-26T20:07:36;50.75;;;18.15;;
73331;SDS011;61560;33.718;73.040;2022-12-26T20:10:03;48.67;;;16.60;;
73331;SDS011;61560;33.718;73.040;2022-12-26T20:12:31;39.97;;;16.42;;
73331;SDS011;61560;33.718;73.040;2022-12-26T20:14:58;47.67;;;19.48;;
73331;SDS011;61560;33.718;73.040;2022-12-26T20:17:26;44.95;;;18.38;;
73331;SDS011;61560;33.718;73.040;2022-12-26T20:19:53;38.85;;;15.63;;
73331;SDS011;61560;33.718;73.040;2022-12-26T20:22:21;47.20;;;18.73;;
73331;SDS011;61560;33.718;73.040;2022-12-26T20:24:48;41.25;;;17.42;;
73331;SDS011;61560;33.718;73.040;2022-12-26T20:27:16;45.95;;;17.58;;
73331;SDS011;61560;33.718;73.040;2022-12-26T20:29:43;39.88;;;16.88;;
73331;SDS011;61560;33.718;73.040;2022-12-26T20:32:10;46.50;;;17.10;;
73331;SDS011;61560;33.718;73.040;2022-12-26T20:34:37;43.05;;;15.68;;
73331;SDS011;61560;33.718;73.040;2022-12-26T20:37:05;51.67;;;17.92;;
73331;SDS011;61560;33.718;73.040;2022-12-26T20:39:32;44.03;;;17.20;;
73331;SDS011;61560;33.718;73.040;2022-12-26T20:41:59;40.38;;;17.23;;
73331;SDS011;61560;33.718;73.040;2022-12-26T20:44:25;44.33;;;15.90;;
73331;SDS011;61560;33.718;73.040;2022-12-26T20:46:53;35.33;;;14.55;;
73331;SDS011;61560;33.718;73.040;2022-12-26T20:49:20;34.70;;;13.35;;
73331;SDS011;61560;33.718;73.040;2022-12-26T20:51:47;41.28;;;15.68;;